Weather at Capital City Airport

Public forecast

Using degrees Fahrenheit for public forecast. Weather courtesy of forecast.io.

Current aviation weather report (METAR) for Capital City Airport

Report is more than 6 hours old.

2022/11/14 14:56 (retrieved 2 years ago)

KCXY 141456Z 32010KT 10SM OVC041 06/M04 A3038 RMK AO2 SLP293 T00561044 51018

Closest aviation forecast (TAF) to Capital City Airport

Forecast is more than 12 hours old.

Closest forecast is Harrisburg International Airport, 4.3 nm (7.9 km) ESE.

2023/02/22 18:45 (retrieved 1 year ago)

TAF KMDT 221740Z 2218/2318 11005KT P6SM -RA OVC060 FM221900 15009KT 6SM -RA BR BKN035 OVC050 FM222100 12004KT 5SM BR BKN025 OVC040 FM230400 11003KT 4SM BR OVC008 WS018/21038KT